createdAt,value
2023-03-29T00:01:02.616Z,5.43
2023-03-29T00:03:09.477Z,5.42
2023-03-29T00:05:13.393Z,5.42
2023-03-29T00:07:20.683Z,5.44
2023-03-29T00:09:26.675Z,5.46
2023-03-29T00:11:31.360Z,5.49
2023-03-29T00:13:35.117Z,5.50
2023-03-29T00:15:42.877Z,5.48
2023-03-29T00:17:47.598Z,5.43
2023-03-29T00:19:53.051Z,5.41
2023-03-29T00:21:56.196Z,5.41
2023-03-29T00:24:01.456Z,5.41
2023-03-29T00:26:07.168Z,5.44
2023-03-29T00:28:10.512Z,5.47
2023-03-29T00:30:15.037Z,5.50
2023-03-29T00:32:20.851Z,5.53
2023-03-29T00:34:25.894Z,5.55
2023-03-29T00:36:33.403Z,5.57
2023-03-29T00:38:38.842Z,5.61
2023-03-29T00:40:47.125Z,5.65
2023-03-29T00:42:50.244Z,5.67
2023-03-29T00:45:07.836Z,5.71
2023-03-29T00:47:11.979Z,5.74
2023-03-29T00:49:15.614Z,5.77
2023-03-29T00:51:24.910Z,5.80
2023-03-29T00:53:36.834Z,5.84
2023-03-29T00:55:54.473Z,5.86
2023-03-29T00:58:01.016Z,5.89
2023-03-29T01:00:10.523Z,5.91
2023-03-29T01:02:16.630Z,5.94
2023-03-29T01:04:34.001Z,5.95
2023-03-29T01:06:44.376Z,5.97
2023-03-29T01:08:53.337Z,5.97
2023-03-29T01:11:15.999Z,5.99
2023-03-29T01:13:27.488Z,6.00
2023-03-29T01:15:32.125Z,6.01
2023-03-29T01:17:35.813Z,6.01
2023-03-29T01:19:48.620Z,6.02
2023-03-29T01:22:07.461Z,6.03
2023-03-29T01:24:13.373Z,6.04
2023-03-29T01:26:31.733Z,6.05
2023-03-29T01:28:48.373Z,6.07
2023-03-29T01:30:57.398Z,6.08
2023-03-29T01:33:24.033Z,6.09
2023-03-29T01:35:49.558Z,6.08
2023-03-29T01:38:14.444Z,6.08
2023-03-29T01:40:24.458Z,6.09
2023-03-29T01:42:42.374Z,6.09
2023-03-29T01:45:32.005Z,6.10
2023-03-29T01:47:54.738Z,6.09
2023-03-29T01:50:17.993Z,6.10
2023-03-29T01:52:32.176Z,6.10
2023-03-29T01:54:54.949Z,6.11
2023-03-29T01:56:59.328Z,6.12
2023-03-29T01:59:13.154Z,6.13
2023-03-29T02:01:24.244Z,6.14
2023-03-29T02:03:42.723Z,6.15
2023-03-29T02:05:47.731Z,6.15
2023-03-29T02:07:54.768Z,6.15
2023-03-29T02:09:59.516Z,6.16
2023-03-29T02:12:06.784Z,6.16
2023-03-29T02:14:12.614Z,6.17
2023-03-29T02:16:16.720Z,6.18
2023-03-29T02:18:20.169Z,6.17
2023-03-29T02:20:33.694Z,6.18
2023-03-29T02:22:45.801Z,6.18
2023-03-29T02:24:59.060Z,6.19
2023-03-29T02:27:03.909Z,6.20
2023-03-29T02:29:08.980Z,6.21
2023-03-29T02:31:29.498Z,6.22
2023-03-29T02:33:45.713Z,6.22
2023-03-29T02:36:13.464Z,6.22
2023-03-29T02:38:17.791Z,6.22
2023-03-29T02:40:26.138Z,6.21
2023-03-29T02:42:33.318Z,6.20
2023-03-29T02:44:41.710Z,6.20
2023-03-29T02:46:51.061Z,6.20
2023-03-29T02:48:57.640Z,6.19
2023-03-29T02:51:03.316Z,6.19
2023-03-29T02:53:13.064Z,6.19
2023-03-29T02:55:23.192Z,6.19
2023-03-29T02:57:30.944Z,6.19
2023-03-29T02:59:35.455Z,6.19
2023-03-29T03:01:43.082Z,6.19
2023-03-29T03:03:47.863Z,6.19
2023-03-29T03:05:52.459Z,6.18
2023-03-29T03:07:59.020Z,6.19
2023-03-29T03:10:03.864Z,6.15
2023-03-29T03:12:09.551Z,6.11
2023-03-29T03:14:13.665Z,6.07
2023-03-29T03:16:20.332Z,6.07
2023-03-29T03:18:24.352Z,6.08
2023-03-29T03:20:31.344Z,6.07
2023-03-29T03:22:35.684Z,6.05
2023-03-29T03:24:40.504Z,6.01
2023-03-29T03:26:46.382Z,5.98
2023-03-29T03:28:51.134Z,5.97
2023-03-29T03:31:17.595Z,5.97
2023-03-29T03:33:42.484Z,5.97
2023-03-29T03:35:46.723Z,5.98
2023-03-29T03:37:51.722Z,6.01
2023-03-29T03:40:00.817Z,6.01
2023-03-29T03:42:08.580Z,5.99
2023-03-29T03:44:16.574Z,5.97
2023-03-29T03:46:20.458Z,5.98
2023-03-29T03:48:25.507Z,6.01
2023-03-29T03:50:55.297Z,6.04
2023-03-29T03:52:58.909Z,6.06
2023-03-29T03:55:07.518Z,6.08
2023-03-29T03:57:33.377Z,6.10
2023-03-29T03:59:37.156Z,6.09
2023-03-29T04:01:44.953Z,6.05
2023-03-29T04:03:52.079Z,6.02
2023-03-29T04:05:56.603Z,6.01
2023-03-29T04:08:00.774Z,6.01
2023-03-29T04:10:22.720Z,6.01
2023-03-29T04:12:47.667Z,6.00
2023-03-29T04:14:50.843Z,5.98
2023-03-29T04:16:59.067Z,5.97
2023-03-29T04:19:20.224Z,5.96
2023-03-29T04:21:24.098Z,5.92
2023-03-29T04:23:26.782Z,5.87
2023-03-29T04:25:30.945Z,5.85
2023-03-29T04:28:13.520Z,5.90
2023-03-29T04:30:27.818Z,5.96
2023-03-29T04:32:54.517Z,6.03
2023-03-29T04:35:02.660Z,6.08
2023-03-29T04:37:10.885Z,6.12
2023-03-29T04:39:14.867Z,6.15
2023-03-29T04:41:28.925Z,6.15
2023-03-29T04:43:56.184Z,6.17
2023-03-29T04:46:04.460Z,6.18
2023-03-29T04:48:37.454Z,6.20
2023-03-29T04:50:47.524Z,6.21
2023-03-29T04:52:53.075Z,6.20
2023-03-29T04:54:56.565Z,6.18
2023-03-29T04:57:09.728Z,6.16
2023-03-29T04:59:15.474Z,6.10
2023-03-29T05:01:18.208Z,6.07
2023-03-29T05:03:31.300Z,6.05
2023-03-29T05:05:44.021Z,6.02
2023-03-29T05:07:47.064Z,6.01
2023-03-29T05:09:51.532Z,6.02
2023-03-29T05:11:56.765Z,6.01
2023-03-29T05:14:03.521Z,5.99
2023-03-29T05:16:11.266Z,5.98
2023-03-29T05:18:15.323Z,5.98
2023-03-29T05:20:19.880Z,5.99
2023-03-29T05:22:23.545Z,6.01
2023-03-29T05:24:30.001Z,6.03
2023-03-29T05:26:41.527Z,6.05
2023-03-29T05:28:45.024Z,6.05
2023-03-29T05:30:48.804Z,6.06
2023-03-29T05:33:07.779Z,6.08
2023-03-29T05:35:13.475Z,6.10
2023-03-29T05:37:16.464Z,6.11
2023-03-29T05:39:37.142Z,6.15
2023-03-29T05:41:43.351Z,6.15
2023-03-29T05:44:12.953Z,6.13
2023-03-29T05:46:19.784Z,6.11
2023-03-29T05:48:28.590Z,6.11
2023-03-29T05:50:31.997Z,6.11
2023-03-29T05:52:37.735Z,6.11
2023-03-29T05:54:43.312Z,6.12
2023-03-29T05:56:48.441Z,6.15
2023-03-29T05:58:54.942Z,6.13
2023-03-29T06:01:01.122Z,6.13
2023-03-29T06:03:36.926Z,6.11
2023-03-29T06:05:42.754Z,6.09
2023-03-29T06:07:47.076Z,6.08
2023-03-29T06:10:09.727Z,6.05
2023-03-29T06:12:14.042Z,6.05
2023-03-29T06:14:30.286Z,6.08
2023-03-29T06:17:03.767Z,6.08
2023-03-29T06:19:07.806Z,6.09
2023-03-29T06:21:11.376Z,6.11
2023-03-29T06:23:16.274Z,6.15
2023-03-29T06:25:23.916Z,6.20
2023-03-29T06:27:33.072Z,6.25
2023-03-29T06:29:35.913Z,6.29
2023-03-29T06:31:42.209Z,6.29
2023-03-29T06:33:47.815Z,6.30
2023-03-29T06:36:08.663Z,6.33
2023-03-29T06:38:13.839Z,6.34
2023-03-29T06:40:45.519Z,6.37
2023-03-29T06:42:58.278Z,6.38
2023-03-29T06:45:34.703Z,6.40
2023-03-29T06:47:40.748Z,6.42
2023-03-29T06:49:46.209Z,6.45
2023-03-29T06:52:24.776Z,6.50
2023-03-29T06:54:27.450Z,6.52
2023-03-29T06:56:38.205Z,6.55
2023-03-29T06:58:45.161Z,6.56
2023-03-29T07:01:08.271Z,6.58
2023-03-29T07:03:36.497Z,6.58
2023-03-29T07:05:42.443Z,6.56
2023-03-29T07:07:57.238Z,6.59
2023-03-29T07:10:07.371Z,6.63
2023-03-29T07:12:32.617Z,6.68
2023-03-29T07:14:37.729Z,6.72
2023-03-29T07:16:43.407Z,6.76
2023-03-29T07:18:58.809Z,6.81
2023-03-29T07:21:25.501Z,6.87
2023-03-29T07:23:29.125Z,6.95
2023-03-29T07:25:34.983Z,7.03
2023-03-29T07:27:41.044Z,7.12
2023-03-29T07:29:46.758Z,7.19
2023-03-29T07:31:52.802Z,7.23
2023-03-29T07:34:25.518Z,7.28
2023-03-29T07:36:28.593Z,7.31
2023-03-29T07:38:32.486Z,7.37
2023-03-29T07:40:41.263Z,7.44
2023-03-29T07:43:08.113Z,7.54
2023-03-29T07:45:13.832Z,7.60
2023-03-29T07:47:28.371Z,7.66
2023-03-29T07:49:31.445Z,7.70
2023-03-29T07:51:38.062Z,7.71
2023-03-29T07:53:47.369Z,7.73
2023-03-29T07:56:12.007Z,7.76
2023-03-29T07:58:24.027Z,7.78
2023-03-29T08:00:28.503Z,7.84
2023-03-29T08:02:52.647Z,7.90
2023-03-29T08:04:57.064Z,7.98
2023-03-29T08:07:21.870Z,8.06
2023-03-29T08:09:43.480Z,8.13
2023-03-29T08:11:47.682Z,8.17
2023-03-29T08:13:56.279Z,8.20
2023-03-29T08:16:17.714Z,8.26
2023-03-29T08:18:27.754Z,8.28
2023-03-29T08:20:33.302Z,8.28
2023-03-29T08:22:40.532Z,8.30
2023-03-29T08:24:45.064Z,8.30
2023-03-29T08:26:49.824Z,8.32
2023-03-29T08:28:59.792Z,8.33
2023-03-29T08:31:05.394Z,8.33
2023-03-29T08:33:16.098Z,8.32
2023-03-29T08:35:19.970Z,8.30
2023-03-29T08:37:34.362Z,8.31
2023-03-29T08:39:40.895Z,8.33
2023-03-29T08:42:17.065Z,8.35
2023-03-29T08:44:37.859Z,8.39
2023-03-29T08:47:15.390Z,8.45
2023-03-29T08:49:22.647Z,8.52
2023-03-29T08:51:33.807Z,8.59
2023-03-29T08:53:45.062Z,8.67
2023-03-29T08:55:56.666Z,8.72
2023-03-29T08:58:35.693Z,8.76
2023-03-29T09:00:44.577Z,8.75
2023-03-29T09:02:52.139Z,8.80
2023-03-29T09:05:04.685Z,8.84
2023-03-29T09:07:23.529Z,8.86
2023-03-29T09:09:34.737Z,8.85
2023-03-29T09:11:46.661Z,8.87
2023-03-29T09:13:59.337Z,8.86
2023-03-29T09:16:34.291Z,8.86
2023-03-29T09:19:02.578Z,8.91
2023-03-29T09:21:31.100Z,8.94
2023-03-29T09:23:48.776Z,8.98
2023-03-29T09:26:34.825Z,9.03
2023-03-29T09:28:57.775Z,9.07
2023-03-29T09:31:12.299Z,9.12
2023-03-29T09:33:37.176Z,9.17
2023-03-29T09:35:57.075Z,9.21
2023-03-29T09:38:07.286Z,9.25
2023-03-29T09:40:17.286Z,9.30
2023-03-29T09:42:30.061Z,9.33
2023-03-29T09:44:41.526Z,9.35
2023-03-29T09:46:56.105Z,9.39
2023-03-29T09:49:02.031Z,9.47
2023-03-29T09:51:07.579Z,9.53
2023-03-29T09:53:15.758Z,9.58
2023-03-29T09:55:27.411Z,9.59
2023-03-29T09:57:35.454Z,9.62
2023-03-29T09:59:40.912Z,9.66
2023-03-29T10:01:49.847Z,9.70
2023-03-29T10:03:57.161Z,9.78
2023-03-29T10:06:03.499Z,9.84
2023-03-29T10:08:29.974Z,9.90
2023-03-29T10:10:36.790Z,9.96
2023-03-29T10:12:44.828Z,10.02
2023-03-29T10:14:54.890Z,10.10
2023-03-29T10:16:58.843Z,10.13
2023-03-29T10:19:33.843Z,10.15
2023-03-29T10:21:38.206Z,10.19
2023-03-29T10:23:48.959Z,10.21
2023-03-29T10:25:53.154Z,10.26
2023-03-29T10:28:19.073Z,10.30
2023-03-29T10:30:25.488Z,10.33
2023-03-29T10:32:35.383Z,10.38
2023-03-29T10:34:40.842Z,10.43
2023-03-29T10:36:59.227Z,10.48
2023-03-29T10:39:05.890Z,10.54
2023-03-29T10:41:14.568Z,10.62
2023-03-29T10:43:26.160Z,10.70
2023-03-29T10:45:35.287Z,10.81
2023-03-29T10:47:38.572Z,10.88
2023-03-29T10:49:50.880Z,10.94
2023-03-29T10:51:55.373Z,11.00
2023-03-29T10:53:59.429Z,11.08
2023-03-29T10:56:08.209Z,11.14
2023-03-29T10:58:21.186Z,11.17
2023-03-29T11:00:33.443Z,11.23
2023-03-29T11:02:48.673Z,11.29
2023-03-29T11:05:09.065Z,11.33
2023-03-29T11:07:41.114Z,11.36
2023-03-29T11:10:15.449Z,11.39
2023-03-29T11:12:35.340Z,11.44
2023-03-29T11:14:53.144Z,11.50
2023-03-29T11:17:03.230Z,11.56
2023-03-29T11:19:13.468Z,11.61
2023-03-29T11:21:17.902Z,11.65
2023-03-29T11:24:05.373Z,11.67
2023-03-29T11:26:20.746Z,11.71
2023-03-29T11:28:37.473Z,11.74
2023-03-29T11:30:46.028Z,11.75
2023-03-29T11:33:07.550Z,11.76
2023-03-29T11:35:29.849Z,11.77
2023-03-29T11:37:51.983Z,11.78
2023-03-29T11:40:05.873Z,11.78
2023-03-29T11:42:17.820Z,11.79
2023-03-29T11:44:23.896Z,11.77
2023-03-29T11:46:58.667Z,11.73
2023-03-29T11:49:32.946Z,11.73
2023-03-29T11:51:41.397Z,11.74
2023-03-29T11:53:53.297Z,11.75
2023-03-29T11:55:57.419Z,11.76
2023-03-29T11:58:07.805Z,11.77
2023-03-29T12:00:24.124Z,11.76
2023-03-29T12:02:39.815Z,11.75
2023-03-29T12:04:48.520Z,11.73
2023-03-29T12:07:12.642Z,11.71
2023-03-29T12:09:44.846Z,11.71
2023-03-29T12:12:01.804Z,11.69
2023-03-29T12:14:21.325Z,11.69
2023-03-29T12:16:25.008Z,11.69
2023-03-29T12:18:34.057Z,11.72
2023-03-29T12:20:39.924Z,11.75
2023-03-29T12:22:49.060Z,11.78
2023-03-29T12:24:54.005Z,11.82
2023-03-29T12:27:01.318Z,11.85
2023-03-29T12:29:43.870Z,11.86
2023-03-29T12:31:52.461Z,11.88
2023-03-29T12:34:24.545Z,11.90
2023-03-29T12:36:51.902Z,11.92
2023-03-29T12:39:21.581Z,11.96
2023-03-29T12:41:45.626Z,11.97
2023-03-29T12:44:27.215Z,11.95
2023-03-29T12:46:40.175Z,11.96
2023-03-29T12:48:46.061Z,11.99
2023-03-29T12:50:52.365Z,12.03
2023-03-29T12:53:15.603Z,12.06
2023-03-29T12:55:33.441Z,12.08
2023-03-29T12:57:45.360Z,12.11
2023-03-29T12:59:52.083Z,12.12
2023-03-29T13:02:05.483Z,12.15
2023-03-29T13:04:19.558Z,12.18
2023-03-29T13:06:34.549Z,12.22
2023-03-29T13:08:48.479Z,12.26
2023-03-29T13:10:58.482Z,12.29
2023-03-29T13:13:14.626Z,12.33
2023-03-29T13:15:18.228Z,12.36
2023-03-29T13:17:40.234Z,12.40
2023-03-29T13:20:01.612Z,12.44
2023-03-29T13:22:25.451Z,12.46
2023-03-29T13:25:11.340Z,12.49
2023-03-29T13:27:42.298Z,12.50
2023-03-29T13:30:21.165Z,12.52
2023-03-29T13:32:50.727Z,12.55
2023-03-29T13:35:11.761Z,12.57
2023-03-29T13:37:33.632Z,12.59
2023-03-29T13:39:48.157Z,12.61
2023-03-29T13:41:54.338Z,12.60
2023-03-29T13:43:57.879Z,12.59
2023-03-29T13:46:00.605Z,12.61
2023-03-29T13:48:24.961Z,12.63
2023-03-29T13:50:53.867Z,12.65
2023-03-29T13:53:06.233Z,12.66
2023-03-29T13:55:17.983Z,12.69
2023-03-29T13:57:25.455Z,12.70
2023-03-29T13:59:43.639Z,12.72
2023-03-29T14:01:53.378Z,12.76
2023-03-29T14:04:01.641Z,12.78
2023-03-29T14:06:08.360Z,12.78
2023-03-29T14:08:21.609Z,12.80
2023-03-29T14:10:33.475Z,12.81
2023-03-29T14:12:41.830Z,12.81
2023-03-29T14:14:56.032Z,12.81
2023-03-29T14:17:02.282Z,12.80
2023-03-29T14:19:14.154Z,12.81
2023-03-29T14:21:18.713Z,12.83
2023-03-29T14:23:27.814Z,12.83
2023-03-29T14:25:32.265Z,12.84
2023-03-29T14:27:45.070Z,12.84
2023-03-29T14:29:53.826Z,12.84
2023-03-29T14:32:09.315Z,12.85
2023-03-29T14:34:16.832Z,12.84
2023-03-29T14:36:21.972Z,12.86
2023-03-29T14:38:27.036Z,12.85
2023-03-29T14:40:33.377Z,12.86
2023-03-29T14:42:39.810Z,12.88
2023-03-29T14:44:44.321Z,12.89
2023-03-29T14:46:50.443Z,12.90
2023-03-29T14:48:56.728Z,12.91
2023-03-29T14:51:00.648Z,12.94
2023-03-29T14:53:04.054Z,12.99
2023-03-29T14:55:07.489Z,13.07
2023-03-29T14:57:20.730Z,13.16
2023-03-29T14:59:28.723Z,13.24
2023-03-29T15:01:31.922Z,13.32
2023-03-29T15:03:54.100Z,13.39
2023-03-29T15:06:03.752Z,13.44
2023-03-29T15:08:14.232Z,13.45
2023-03-29T15:10:19.300Z,13.45
2023-03-29T15:12:23.759Z,13.44
2023-03-29T15:14:31.478Z,13.43
2023-03-29T15:16:38.691Z,13.42
2023-03-29T15:18:44.170Z,13.43
2023-03-29T15:20:48.488Z,13.43
2023-03-29T15:23:18.519Z,13.43
2023-03-29T15:25:24.686Z,13.41
2023-03-29T15:27:39.603Z,13.40
2023-03-29T15:29:46.768Z,13.39
2023-03-29T15:31:58.966Z,13.36
2023-03-29T15:34:08.500Z,13.35
2023-03-29T15:36:17.140Z,13.35
2023-03-29T15:38:27.655Z,13.36
2023-03-29T15:40:37.654Z,13.37
2023-03-29T15:42:43.009Z,13.38
2023-03-29T15:44:48.519Z,13.45
2023-03-29T15:46:55.377Z,13.61
2023-03-29T15:48:59.391Z,13.86
2023-03-29T15:51:05.485Z,14.04
2023-03-29T15:53:15.577Z,14.07
2023-03-29T15:55:22.544Z,14.07
2023-03-29T15:57:28.391Z,14.10
2023-03-29T15:59:33.325Z,14.16
2023-03-29T16:01:38.914Z,14.22
2023-03-29T16:03:41.665Z,14.21
2023-03-29T16:05:45.624Z,14.19
2023-03-29T16:07:48.299Z,14.18
2023-03-29T16:09:51.026Z,14.19
2023-03-29T16:11:56.094Z,14.17
2023-03-29T16:13:59.574Z,14.14
2023-03-29T16:16:10.269Z,14.12
2023-03-29T16:18:15.180Z,14.11
2023-03-29T16:20:20.027Z,14.10
2023-03-29T16:22:24.432Z,14.07
2023-03-29T16:24:32.873Z,14.03
2023-03-29T16:26:36.440Z,13.95
2023-03-29T16:28:39.189Z,13.88
2023-03-29T16:30:42.842Z,13.81
2023-03-29T16:32:47.895Z,13.75
2023-03-29T16:34:53.591Z,13.70
2023-03-29T16:36:56.774Z,13.65
2023-03-29T16:39:00.104Z,13.60
2023-03-29T16:41:07.569Z,13.57
2023-03-29T16:43:16.005Z,13.53
2023-03-29T16:45:21.327Z,13.51
2023-03-29T16:47:26.073Z,13.46
2023-03-29T16:49:29.098Z,13.42
2023-03-29T16:51:32.316Z,13.39
2023-03-29T16:53:35.626Z,13.33
2023-03-29T16:55:38.218Z,13.30
2023-03-29T16:57:42.178Z,13.27
2023-03-29T16:59:47.539Z,13.24
2023-03-29T17:01:51.109Z,13.22
2023-03-29T17:03:54.646Z,13.20
2023-03-29T17:05:57.976Z,13.19
2023-03-29T17:08:00.549Z,13.17
2023-03-29T17:10:09.162Z,13.16
2023-03-29T17:12:12.168Z,13.14
2023-03-29T17:14:15.430Z,13.11
2023-03-29T17:16:19.826Z,13.10
2023-03-29T17:18:26.759Z,13.08
2023-03-29T17:20:31.635Z,13.08
2023-03-29T17:22:41.014Z,13.07
2023-03-29T17:24:43.622Z,13.05
2023-03-29T17:26:56.001Z,13.04
2023-03-29T17:29:01.089Z,13.01
2023-03-29T17:31:08.747Z,12.99
2023-03-29T17:33:13.448Z,12.96
2023-03-29T17:35:15.989Z,12.94
2023-03-29T17:37:21.224Z,12.91
2023-03-29T17:39:27.580Z,12.89
2023-03-29T17:41:32.997Z,12.86
2023-03-29T17:43:35.705Z,12.84
2023-03-29T17:45:39.312Z,12.82
2023-03-29T17:47:42.819Z,12.80
2023-03-29T17:49:45.305Z,12.79
2023-03-29T17:51:49.774Z,12.75
2023-03-29T17:53:54.783Z,12.75
2023-03-29T17:55:57.365Z,12.74
2023-03-29T17:58:00.013Z,12.72
2023-03-29T18:00:02.558Z,12.70
2023-03-29T18:02:07.501Z,12.68
2023-03-29T18:04:11.718Z,12.66
2023-03-29T18:06:19.112Z,12.64
2023-03-29T18:08:21.567Z,12.63
2023-03-29T18:10:24.629Z,12.61
2023-03-29T18:12:33.223Z,12.58
2023-03-29T18:14:37.006Z,12.57
2023-03-29T18:16:42.837Z,12.56
2023-03-29T18:18:46.514Z,12.54
2023-03-29T18:20:49.454Z,12.53
2023-03-29T18:22:51.931Z,12.52
2023-03-29T18:24:55.435Z,12.51
2023-03-29T18:27:01.258Z,12.49
2023-03-29T18:29:06.076Z,12.49
2023-03-29T18:31:12.114Z,12.48
2023-03-29T18:33:17.252Z,12.45
2023-03-29T18:35:25.302Z,12.45
2023-03-29T18:37:28.293Z,12.44
2023-03-29T18:39:32.106Z,12.42
2023-03-29T18:41:37.184Z,12.40
2023-03-29T18:43:40.893Z,12.39
2023-03-29T18:45:45.705Z,12.37
2023-03-29T18:47:50.649Z,12.35
2023-03-29T18:49:56.358Z,12.34
2023-03-29T18:51:59.201Z,12.33
2023-03-29T18:54:01.881Z,12.30
2023-03-29T18:56:07.123Z,12.28
2023-03-29T18:58:14.725Z,12.26
2023-03-29T19:00:18.095Z,12.24
2023-03-29T19:02:22.973Z,12.22
2023-03-29T19:04:27.529Z,12.18
2023-03-29T19:06:31.630Z,12.16
2023-03-29T19:08:41.621Z,12.13
2023-03-29T19:10:45.511Z,12.11
2023-03-29T19:12:57.056Z,12.09
2023-03-29T19:15:01.887Z,12.07
2023-03-29T19:17:06.642Z,12.06
2023-03-29T19:19:10.845Z,12.04
2023-03-29T19:21:16.856Z,12.02
2023-03-29T19:23:28.876Z,12.01
2023-03-29T19:25:31.776Z,11.98
2023-03-29T19:27:35.804Z,11.98
2023-03-29T19:29:38.946Z,11.98
2023-03-29T19:31:42.074Z,11.97
2023-03-29T19:33:51.323Z,11.97
2023-03-29T19:35:56.679Z,11.97
2023-03-29T19:38:01.362Z,11.96
2023-03-29T19:40:06.765Z,11.97
2023-03-29T19:42:09.864Z,11.96
2023-03-29T19:44:13.744Z,11.95
2023-03-29T19:46:17.744Z,11.95
2023-03-29T19:48:23.959Z,11.94
2023-03-29T19:50:29.818Z,11.94
2023-03-29T19:52:33.948Z,11.95
2023-03-29T19:54:42.523Z,11.93
2023-03-29T19:56:46.306Z,11.91
2023-03-29T19:59:01.123Z,11.90
2023-03-29T20:01:08.355Z,11.90
2023-03-29T20:03:13.245Z,11.89
2023-03-29T20:05:21.321Z,11.89
2023-03-29T20:07:27.620Z,11.85
2023-03-29T20:09:31.315Z,11.84
2023-03-29T20:11:34.931Z,11.83
2023-03-29T20:13:43.264Z,11.83
2023-03-29T20:15:47.147Z,11.85
2023-03-29T20:17:54.853Z,11.85
2023-03-29T20:19:59.146Z,11.84
2023-03-29T20:22:03.775Z,11.84
2023-03-29T20:24:08.620Z,11.84
2023-03-29T20:26:14.188Z,11.83
2023-03-29T20:28:20.648Z,11.83
2023-03-29T20:30:25.237Z,11.82
2023-03-29T20:32:30.410Z,11.83
2023-03-29T20:34:34.163Z,11.84
2023-03-29T20:36:38.973Z,11.85
2023-03-29T20:38:43.485Z,11.88
2023-03-29T20:40:46.071Z,11.91
2023-03-29T20:42:49.367Z,11.93
2023-03-29T20:44:53.740Z,11.96
2023-03-29T20:47:05.387Z,11.96
2023-03-29T20:49:08.999Z,11.97
2023-03-29T20:51:16.030Z,11.96
2023-03-29T20:53:20.739Z,11.95
2023-03-29T20:55:25.169Z,11.95
2023-03-29T20:57:30.397Z,11.95
2023-03-29T20:59:34.811Z,11.91
2023-03-29T21:01:40.551Z,11.85
2023-03-29T21:03:46.400Z,11.81
2023-03-29T21:05:57.274Z,11.76
2023-03-29T21:08:02.450Z,11.73
2023-03-29T21:10:07.047Z,11.76
2023-03-29T21:12:10.056Z,11.78
2023-03-29T21:14:23.631Z,11.81
2023-03-29T21:16:31.312Z,11.84
2023-03-29T21:18:37.086Z,11.87
2023-03-29T21:20:41.930Z,11.90
2023-03-29T21:22:44.512Z,11.92
2023-03-29T21:24:50.553Z,11.94
2023-03-29T21:26:54.330Z,11.97
2023-03-29T21:28:57.939Z,11.99
2023-03-29T21:31:05.539Z,12.01
2023-03-29T21:33:09.566Z,12.03
2023-03-29T21:35:13.291Z,12.04
2023-03-29T21:37:19.640Z,12.05
2023-03-29T21:39:26.107Z,12.05
2023-03-29T21:41:29.894Z,12.04
2023-03-29T21:43:32.696Z,12.03
2023-03-29T21:45:36.407Z,12.01
2023-03-29T21:47:39.751Z,12.00
2023-03-29T21:49:43.170Z,11.99
2023-03-29T21:51:46.458Z,11.99
2023-03-29T21:53:48.974Z,12.00
2023-03-29T21:55:52.781Z,12.00
2023-03-29T21:57:55.632Z,12.00
2023-03-29T21:59:59.143Z,12.02
2023-03-29T22:02:02.903Z,12.02
2023-03-29T22:04:06.920Z,12.03
2023-03-29T22:06:13.683Z,12.04
2023-03-29T22:08:19.266Z,12.03
2023-03-29T22:10:25.851Z,12.03
2023-03-29T22:12:37.971Z,12.02
2023-03-29T22:14:41.352Z,12.02
2023-03-29T22:16:49.999Z,11.97
2023-03-29T22:18:54.335Z,11.93
2023-03-29T22:21:01.519Z,11.89
2023-03-29T22:23:07.349Z,11.86
2023-03-29T22:25:11.818Z,11.86
2023-03-29T22:27:14.359Z,11.86
2023-03-29T22:29:17.189Z,11.87
2023-03-29T22:31:25.984Z,11.87
2023-03-29T22:33:31.058Z,11.86
2023-03-29T22:35:35.977Z,11.85
2023-03-29T22:37:43.516Z,11.84
2023-03-29T22:39:49.520Z,11.83
2023-03-29T22:41:52.016Z,11.81
2023-03-29T22:43:57.732Z,11.79
2023-03-29T22:46:01.100Z,11.78
2023-03-29T22:48:05.859Z,11.74
2023-03-29T22:50:12.280Z,11.73
2023-03-29T22:52:15.586Z,11.71
2023-03-29T22:54:18.512Z,11.66
2023-03-29T22:56:22.144Z,11.63
2023-03-29T22:58:25.323Z,11.61
2023-03-29T23:00:35.531Z,11.60
2023-03-29T23:02:38.165Z,11.60
2023-03-29T23:04:42.443Z,11.61
2023-03-29T23:06:56.414Z,11.64
2023-03-29T23:08:58.965Z,11.65
2023-03-29T23:11:07.138Z,11.65
2023-03-29T23:13:10.382Z,11.65
2023-03-29T23:15:14.557Z,11.65
2023-03-29T23:17:19.907Z,11.66
2023-03-29T23:19:27.483Z,11.66
2023-03-29T23:21:29.955Z,11.66
2023-03-29T23:23:33.882Z,11.64
2023-03-29T23:25:38.328Z,11.62
2023-03-29T23:27:41.304Z,11.59
2023-03-29T23:29:47.645Z,11.57
2023-03-29T23:31:50.208Z,11.56
2023-03-29T23:33:53.185Z,11.54
2023-03-29T23:35:57.910Z,11.52
2023-03-29T23:38:00.823Z,11.50
2023-03-29T23:40:14.140Z,11.49
2023-03-29T23:42:18.340Z,11.47
2023-03-29T23:44:20.891Z,11.45
2023-03-29T23:46:23.642Z,11.45
2023-03-29T23:48:27.317Z,11.44
2023-03-29T23:50:33.143Z,11.44
2023-03-29T23:52:37.851Z,11.41
2023-03-29T23:54:40.389Z,11.38
2023-03-29T23:56:44.089Z,11.37
2023-03-29T23:58:47.289Z,11.36
